createdAt,value
2022-11-19T00:00:50.817Z,68.08
2022-11-19T00:03:19.023Z,68.27
2022-11-19T00:05:48.102Z,68.49
2022-11-19T00:08:17.784Z,68.45
2022-11-19T00:10:45.679Z,67.67
2022-11-19T00:13:13.573Z,68.43
2022-11-19T00:15:40.531Z,67.95
2022-11-19T00:18:07.432Z,68.46
2022-11-19T00:20:35.259Z,69.62
2022-11-19T00:23:01.863Z,69.51
2022-11-19T00:25:30.623Z,70.18
2022-11-19T00:27:57.794Z,71.05
2022-11-19T00:30:47.042Z,70.26
2022-11-19T00:33:11.087Z,68.36
2022-11-19T00:35:37.711Z,68.44
2022-11-19T00:38:04.378Z,68.73
2022-11-19T00:40:30.819Z,67.76
2022-11-19T00:43:32.795Z,67.87
2022-11-19T00:45:59.267Z,67.88
2022-11-19T00:48:25.741Z,68.77
2022-11-19T00:50:52.194Z,68.71
2022-11-19T00:53:18.654Z,69.20
2022-11-19T00:55:45.164Z,67.61
2022-11-19T00:58:11.646Z,70.27
2022-11-19T01:00:38.942Z,70.58
2022-11-19T01:03:05.762Z,71.15
2022-11-19T01:05:32.270Z,69.58
2022-11-19T01:07:58.833Z,69.67
2022-11-19T01:10:25.319Z,69.75
2022-11-19T01:13:10.408Z,68.92
2022-11-19T01:15:36.853Z,69.25
2022-11-19T01:18:03.335Z,68.29
2022-11-19T01:20:29.929Z,68.80
2022-11-19T01:22:56.567Z,68.17
2022-11-19T01:25:23.004Z,69.63
2022-11-19T01:27:49.442Z,68.47
2022-11-19T01:30:15.935Z,69.38
2022-11-19T01:32:42.389Z,69.71
2022-11-19T01:35:09.220Z,68.15
2022-11-19T01:37:35.695Z,68.23
2022-11-19T01:40:02.144Z,68.94
2022-11-19T01:42:51.548Z,69.51
2022-11-19T01:45:38.222Z,69.45
2022-11-19T01:48:09.928Z,68.94
2022-11-19T01:50:43.559Z,67.59
2022-11-19T01:53:11.162Z,70.06
2022-11-19T01:55:38.753Z,68.40
2022-11-19T01:58:06.444Z,67.33
2022-11-19T02:00:33.232Z,68.48
2022-11-19T02:02:59.896Z,69.12
2022-11-19T02:05:26.983Z,67.77
2022-11-19T02:07:55.963Z,68.81
2022-11-19T02:10:48.738Z,68.94
2022-11-19T02:13:43.874Z,69.08
2022-11-19T02:16:25.876Z,69.06
2022-11-19T02:19:33.594Z,66.92
2022-11-19T02:22:03.044Z,68.43
2022-11-19T02:24:35.560Z,68.09
2022-11-19T02:27:40.243Z,69.69
2022-11-19T02:30:11.920Z,67.87
2022-11-19T02:32:58.907Z,69.02
2022-11-19T02:35:30.700Z,69.20
2022-11-19T02:38:13.621Z,69.63
2022-11-19T02:40:43.941Z,69.78
2022-11-19T02:43:17.082Z,67.83
2022-11-19T02:45:47.182Z,68.63
2022-11-19T02:48:28.046Z,68.23
2022-11-19T02:51:00.879Z,68.77
2022-11-19T02:53:27.592Z,67.49
2022-11-19T02:56:12.331Z,69.25
2022-11-19T02:59:05.966Z,69.23
2022-11-19T03:01:52.595Z,67.53
2022-11-19T03:04:32.455Z,68.85
2022-11-19T03:07:25.464Z,68.49
2022-11-19T03:09:57.935Z,68.20
2022-11-19T03:12:56.402Z,68.84
2022-11-19T03:15:55.789Z,68.33
2022-11-19T03:18:49.608Z,68.96
2022-11-19T03:21:26.093Z,68.27
2022-11-19T03:24:01.626Z,69.34
2022-11-19T03:26:37.006Z,69.59
2022-11-19T03:29:07.345Z,70.95
2022-11-19T03:31:34.598Z,70.30
2022-11-19T03:34:04.487Z,69.45
2022-11-19T03:36:36.270Z,71.02
2022-11-19T03:39:05.901Z,69.69
2022-11-19T03:41:34.331Z,69.70
2022-11-19T03:44:06.159Z,71.21
2022-11-19T03:46:35.077Z,70.31
2022-11-19T03:49:02.393Z,70.44
2022-11-19T03:51:35.942Z,70.77
2022-11-19T03:54:02.875Z,71.47
2022-11-19T03:56:29.526Z,69.46
2022-11-19T03:58:58.849Z,69.84
2022-11-19T04:01:25.442Z,71.84
2022-11-19T04:04:10.478Z,70.10
2022-11-19T04:06:36.909Z,70.39
2022-11-19T04:09:03.728Z,69.03
2022-11-19T04:11:30.156Z,68.07
2022-11-19T04:13:56.604Z,68.54
2022-11-19T04:16:23.073Z,69.42
2022-11-19T04:18:49.519Z,70.95
2022-11-19T04:21:15.964Z,69.79
2022-11-19T04:23:42.388Z,70.42
2022-11-19T04:26:08.868Z,70.16
2022-11-19T04:28:35.292Z,69.94
2022-11-19T04:31:01.790Z,69.98
2022-11-19T04:33:28.211Z,69.75
2022-11-19T04:35:54.672Z,68.81
2022-11-19T04:38:21.096Z,68.57
2022-11-19T04:40:47.625Z,69.44
2022-11-19T04:43:14.061Z,68.40
2022-11-19T04:45:40.541Z,68.88
2022-11-19T04:48:07.132Z,69.02
2022-11-19T04:50:33.594Z,68.53
2022-11-19T04:53:00.132Z,69.25
2022-11-19T04:55:26.643Z,68.85
2022-11-19T04:57:53.428Z,69.93
2022-11-19T05:00:20.142Z,69.28
2022-11-19T05:02:46.608Z,70.23
2022-11-19T05:05:13.124Z,69.15
2022-11-19T05:07:39.625Z,68.40
2022-11-19T05:34:14.103Z,69.69
2022-11-19T05:36:50.373Z,67.58
2022-11-19T05:48:37.424Z,67.93
2022-11-19T05:57:19.651Z,67.82
2022-11-19T06:08:42.379Z,69.51
2022-11-19T06:11:50.765Z,70.59
2022-11-19T06:38:07.579Z,69.55
2022-11-19T06:43:52.883Z,71.28
2022-11-19T06:46:36.678Z,72.65
2022-11-19T07:05:31.113Z,73.14
2022-11-19T07:08:30.824Z,72.59
2022-11-19T07:18:03.327Z,77.46
2022-11-19T07:37:33.027Z,77.37
2022-11-19T07:57:44.515Z,75.99
2022-11-19T08:07:47.962Z,79.34
2022-11-19T08:10:14.665Z,80.05
2022-11-19T08:12:41.169Z,79.84
2022-11-19T08:15:08.526Z,77.27
2022-11-19T08:17:53.631Z,76.32
2022-11-19T08:20:20.054Z,76.06
2022-11-19T08:22:47.002Z,77.91
2022-11-19T08:25:13.494Z,77.31
2022-11-19T08:27:39.926Z,77.63
2022-11-19T08:30:06.956Z,76.34
2022-11-19T08:32:36.153Z,75.37
2022-11-19T08:35:02.628Z,78.59
2022-11-19T08:37:29.052Z,79.91
2022-11-19T08:39:55.560Z,81.49
2022-11-19T08:42:40.561Z,81.33
2022-11-19T08:45:07.680Z,81.07
2022-11-19T08:47:34.932Z,79.86
2022-11-19T08:50:01.408Z,81.28
2022-11-19T08:52:27.879Z,81.96
2022-11-19T08:54:54.354Z,79.72
2022-11-19T08:57:20.791Z,80.46
2022-11-19T08:59:47.321Z,81.47
2022-11-19T09:02:13.797Z,80.06
2022-11-19T09:04:41.491Z,80.99
2022-11-19T09:07:07.943Z,82.24
2022-11-19T09:09:34.478Z,81.98
2022-11-19T09:12:01.047Z,79.52
2022-11-19T09:14:27.533Z,79.16
2022-11-19T09:16:54.007Z,79.17
2022-11-19T09:19:20.496Z,80.05
2022-11-19T09:21:46.960Z,79.48
2022-11-19T09:24:13.419Z,79.91
2022-11-19T09:26:39.867Z,79.48
2022-11-19T09:29:06.364Z,81.70
2022-11-19T09:31:32.896Z,80.81
2022-11-19T09:33:59.485Z,81.73
2022-11-19T09:36:25.941Z,78.76
2022-11-19T09:38:56.861Z,77.91
2022-11-19T09:41:44.035Z,77.43
2022-11-19T09:44:28.987Z,78.26
2022-11-19T09:47:16.921Z,78.79
2022-11-19T09:49:51.415Z,79.13
2022-11-19T09:52:20.421Z,79.72
2022-11-19T09:54:50.216Z,78.37
2022-11-19T09:57:24.357Z,79.45
2022-11-19T09:59:52.075Z,78.83
2022-11-19T10:02:20.520Z,78.88
2022-11-19T10:04:48.172Z,79.06
2022-11-19T10:07:27.257Z,78.98
2022-11-19T10:09:59.927Z,80.17
2022-11-19T10:12:43.561Z,77.38
2022-11-19T10:15:22.105Z,78.96
2022-11-19T10:18:29.171Z,78.62
2022-11-19T10:21:02.181Z,79.60
2022-11-19T10:24:01.128Z,79.33
2022-11-19T10:26:34.709Z,78.50
2022-11-19T10:29:02.269Z,79.28
2022-11-19T10:31:39.923Z,79.79
2022-11-19T10:34:12.507Z,78.09
2022-11-19T10:36:43.446Z,78.13
2022-11-19T10:39:18.626Z,78.65
2022-11-19T10:41:50.017Z,78.22
2022-11-19T10:44:40.413Z,79.02
2022-11-19T10:47:24.101Z,78.21
2022-11-19T10:49:55.508Z,78.25
2022-11-19T10:52:29.515Z,78.66
2022-11-19T10:55:04.105Z,77.47
2022-11-19T10:57:32.567Z,76.94
2022-11-19T11:00:00.795Z,76.72
2022-11-19T11:02:44.438Z,76.77
2022-11-19T11:05:14.029Z,78.10
2022-11-19T11:07:50.473Z,78.82
2022-11-19T11:10:34.716Z,76.97
2022-11-19T11:13:53.952Z,77.61
2022-11-19T11:16:26.666Z,76.96
2022-11-19T11:18:54.297Z,76.58
2022-11-19T11:21:34.555Z,78.73
2022-11-19T11:24:02.675Z,77.70
2022-11-19T11:26:29.983Z,77.02
2022-11-19T11:29:08.704Z,77.19
2022-11-19T11:31:38.415Z,78.14
2022-11-19T11:34:06.475Z,78.94
2022-11-19T11:36:35.667Z,79.21
2022-11-19T11:39:04.496Z,80.37
2022-11-19T11:42:04.876Z,80.48
2022-11-19T11:44:30.904Z,79.55
2022-11-19T11:47:01.048Z,78.75
2022-11-19T11:49:30.783Z,78.65
2022-11-19T11:52:09.684Z,79.90
2022-11-19T11:54:37.745Z,78.95
2022-11-19T11:57:24.614Z,77.32
2022-11-19T11:59:51.064Z,77.88
2022-11-19T12:02:26.824Z,78.88
2022-11-19T12:04:54.960Z,76.38
2022-11-19T12:07:58.271Z,76.55
2022-11-19T12:10:52.228Z,77.92
2022-11-19T12:13:33.947Z,77.13
2022-11-19T12:16:00.371Z,76.09
2022-11-19T12:18:45.671Z,76.94
2022-11-19T12:21:20.899Z,78.04
2022-11-19T12:24:12.118Z,77.35
2022-11-19T12:26:43.903Z,75.87
2022-11-19T12:29:13.497Z,76.46
2022-11-19T12:32:01.529Z,76.50
2022-11-19T12:34:36.953Z,76.21
2022-11-19T12:37:18.666Z,76.83
2022-11-19T12:40:03.770Z,77.16
2022-11-19T12:42:49.697Z,77.31
2022-11-19T12:45:37.013Z,77.95
2022-11-19T12:48:29.263Z,76.93
2022-11-19T12:51:03.195Z,77.44
2022-11-19T12:53:45.315Z,78.54
2022-11-19T12:56:31.935Z,78.55
2022-11-19T12:59:37.605Z,77.72
2022-11-19T13:02:17.322Z,79.00
2022-11-19T13:04:56.262Z,77.72
2022-11-19T13:07:31.102Z,76.27
2022-11-19T13:10:01.931Z,75.15
2022-11-19T13:12:37.042Z,74.34
2022-11-19T13:15:08.401Z,73.81
2022-11-19T13:17:38.487Z,74.98
2022-11-19T13:20:08.068Z,74.58
2022-11-19T13:22:41.183Z,74.83
2022-11-19T13:25:17.294Z,75.01
2022-11-19T13:27:45.098Z,75.48
2022-11-19T13:30:23.403Z,75.59
2022-11-19T13:33:02.937Z,75.00
2022-11-19T13:35:34.223Z,74.38
2022-11-19T13:38:12.299Z,75.62
2022-11-19T13:40:45.980Z,73.78
2022-11-19T13:43:34.516Z,73.92
2022-11-19T13:46:13.166Z,75.13
2022-11-19T13:48:46.318Z,75.21
2022-11-19T13:51:41.292Z,75.29
2022-11-19T13:54:08.534Z,74.92
2022-11-19T13:56:41.713Z,74.81
2022-11-19T13:59:08.557Z,74.71
2022-11-19T14:02:19.774Z,75.86
2022-11-19T14:05:19.623Z,76.11
2022-11-19T14:07:58.376Z,74.58
2022-11-19T14:10:30.677Z,73.63
2022-11-19T14:13:00.189Z,74.01
2022-11-19T14:16:15.932Z,74.87
2022-11-19T14:19:05.866Z,76.01
2022-11-19T14:21:53.853Z,74.83
2022-11-19T14:24:44.962Z,74.09
2022-11-19T14:27:33.766Z,73.87
2022-11-19T14:30:01.553Z,73.80
2022-11-19T14:32:29.867Z,74.36
2022-11-19T14:35:25.506Z,72.90
2022-11-19T14:37:54.783Z,72.19
2022-11-19T14:40:28.895Z,70.77
2022-11-19T14:43:19.934Z,69.70
2022-11-19T14:46:10.389Z,69.31
2022-11-19T14:48:39.911Z,70.12
2022-11-19T14:51:15.054Z,70.51
2022-11-19T14:54:03.550Z,71.57
2022-11-19T14:56:31.090Z,71.44
2022-11-19T14:59:05.586Z,70.26
2022-11-19T15:01:33.320Z,72.65
2022-11-19T15:04:02.988Z,72.57
2022-11-19T15:06:34.549Z,74.24
2022-11-19T15:09:02.144Z,73.91
2022-11-19T15:11:58.308Z,73.61
2022-11-19T15:15:01.095Z,73.91
2022-11-19T15:17:28.279Z,72.83
2022-11-19T15:20:38.833Z,71.63
2022-11-19T15:23:17.537Z,71.00
2022-11-19T15:26:02.375Z,72.89
2022-11-19T15:29:01.240Z,72.56
2022-11-19T15:32:05.633Z,71.83
2022-11-19T15:35:03.879Z,71.93
2022-11-19T15:37:43.191Z,71.83
2022-11-19T15:40:12.937Z,71.93
2022-11-19T15:42:57.106Z,72.47
2022-11-19T15:45:24.760Z,71.84
2022-11-19T15:48:02.725Z,71.91
2022-11-19T15:50:29.227Z,72.34
2022-11-19T15:53:00.294Z,72.63
2022-11-19T15:55:30.777Z,73.29
2022-11-19T15:58:11.075Z,72.00
2022-11-19T16:00:45.865Z,72.44
2022-11-19T16:03:12.532Z,71.43
2022-11-19T16:05:40.051Z,72.29
2022-11-19T16:08:09.154Z,72.37
2022-11-19T16:10:40.237Z,72.17
2022-11-19T16:13:43.112Z,71.63
2022-11-19T16:16:43.929Z,72.43
2022-11-19T16:19:13.928Z,73.37
2022-11-19T16:21:41.018Z,73.61
2022-11-19T16:24:32.169Z,72.66
2022-11-19T16:26:59.291Z,72.79
2022-11-19T16:29:26.470Z,72.88
2022-11-19T16:31:57.427Z,73.07
2022-11-19T16:34:25.761Z,72.11
2022-11-19T16:36:53.000Z,71.56
2022-11-19T16:39:23.524Z,71.59
2022-11-19T16:42:12.591Z,70.56
2022-11-19T16:44:42.904Z,71.74
2022-11-19T16:47:15.835Z,73.15
2022-11-19T16:49:48.280Z,71.70
2022-11-19T16:52:33.175Z,71.68
2022-11-19T16:55:00.451Z,71.74
2022-11-19T16:57:29.026Z,71.76
2022-11-19T17:00:23.684Z,71.49
2022-11-19T17:02:50.933Z,72.15
2022-11-19T17:05:20.408Z,73.08
2022-11-19T17:07:51.963Z,71.44
2022-11-19T17:10:26.798Z,72.47
2022-11-19T17:13:05.806Z,72.37
2022-11-19T17:15:48.108Z,73.06
2022-11-19T17:18:26.837Z,73.20
2022-11-19T17:20:56.118Z,72.30
2022-11-19T17:23:24.691Z,72.60
2022-11-19T17:25:53.868Z,72.78
2022-11-19T17:28:25.626Z,73.20
2022-11-19T17:30:52.223Z,72.07
2022-11-19T17:33:22.915Z,71.71
2022-11-19T17:35:49.522Z,72.19
2022-11-19T17:38:19.363Z,73.37
2022-11-19T17:40:53.932Z,72.84
2022-11-19T17:43:56.510Z,71.66
2022-11-19T17:46:25.083Z,71.67
2022-11-19T17:48:52.773Z,71.62
2022-11-19T17:51:23.315Z,71.42
2022-11-19T17:53:51.812Z,71.75
2022-11-19T17:56:20.582Z,71.85
2022-11-19T17:58:47.489Z,71.26
2022-11-19T18:01:15.362Z,72.43
2022-11-19T18:03:41.983Z,73.63
2022-11-19T18:06:11.491Z,72.62
2022-11-19T18:08:40.268Z,72.89
2022-11-19T18:11:06.802Z,72.80
2022-11-19T18:13:36.736Z,73.39
2022-11-19T18:16:14.010Z,72.15
2022-11-19T18:18:40.809Z,72.84
2022-11-19T18:21:12.950Z,71.81
2022-11-19T18:23:41.401Z,71.95
2022-11-19T18:26:12.669Z,72.01
2022-11-19T18:28:45.042Z,72.13
2022-11-19T18:31:26.838Z,73.02
2022-11-19T18:33:54.692Z,73.85
2022-11-19T18:36:26.378Z,72.98
2022-11-19T18:38:54.856Z,72.70
2022-11-19T18:41:21.761Z,72.35
2022-11-19T18:44:06.918Z,72.22
2022-11-19T18:46:33.429Z,72.26
2022-11-19T18:48:59.960Z,72.41
2022-11-19T18:51:27.679Z,72.16
2022-11-19T18:53:54.132Z,72.44
2022-11-19T18:56:26.928Z,72.49
2022-11-19T18:58:53.480Z,72.82
2022-11-19T19:01:24.184Z,71.94
2022-11-19T19:03:52.251Z,72.19
2022-11-19T19:06:18.842Z,71.83
2022-11-19T19:08:46.685Z,72.24
2022-11-19T19:11:31.841Z,72.17
2022-11-19T19:13:58.429Z,71.59
2022-11-19T19:16:25.062Z,71.52
2022-11-19T19:18:52.264Z,71.72
2022-11-19T19:21:20.686Z,72.03
2022-11-19T19:23:47.566Z,71.17
2022-11-19T19:26:16.179Z,72.66
2022-11-19T19:28:43.434Z,70.72
2022-11-19T19:31:14.962Z,71.10
2022-11-19T19:33:46.279Z,70.84
2022-11-19T19:36:13.274Z,70.29
2022-11-19T19:38:42.894Z,71.44
2022-11-19T19:41:17.261Z,72.30
2022-11-19T19:43:43.996Z,71.19
2022-11-19T19:46:18.411Z,72.16
2022-11-19T19:48:47.016Z,72.33
2022-11-19T19:51:14.628Z,72.17
2022-11-19T19:53:41.945Z,71.65
2022-11-19T19:56:21.274Z,71.00
2022-11-19T19:58:50.736Z,71.40
2022-11-19T20:01:18.406Z,72.28
2022-11-19T20:03:44.999Z,70.83
2022-11-19T20:06:13.591Z,70.80
2022-11-19T20:08:41.082Z,71.36
2022-11-19T20:11:12.795Z,71.46
2022-11-19T20:13:40.158Z,70.37
2022-11-19T20:16:13.127Z,70.95
2022-11-19T20:18:43.126Z,71.98
2022-11-19T20:21:11.626Z,72.38
2022-11-19T20:23:38.916Z,73.44
2022-11-19T20:26:07.883Z,71.78
2022-11-19T20:28:34.584Z,72.65
2022-11-19T20:31:12.909Z,72.06
2022-11-19T20:33:40.766Z,72.68
2022-11-19T20:36:08.982Z,72.37
2022-11-19T20:38:37.707Z,71.96
2022-11-19T20:41:07.001Z,71.59
2022-11-19T20:43:53.409Z,72.71
2022-11-19T20:46:22.473Z,73.13
2022-11-19T20:48:50.678Z,72.24
2022-11-19T20:51:21.213Z,72.79
2022-11-19T20:53:48.121Z,71.37
2022-11-19T20:56:14.839Z,72.17
2022-11-19T20:58:41.366Z,72.46
2022-11-19T21:01:12.888Z,72.87
2022-11-19T21:03:39.551Z,71.81
2022-11-19T21:06:07.603Z,72.54
2022-11-19T21:08:35.758Z,74.15
2022-11-19T21:11:05.223Z,73.51
2022-11-19T21:13:32.057Z,73.88
2022-11-19T21:15:59.427Z,73.83
2022-11-19T21:18:26.466Z,73.71
2022-11-19T21:20:52.986Z,73.40
2022-11-19T21:23:20.387Z,73.95
2022-11-19T21:25:46.846Z,73.51
2022-11-19T21:28:14.216Z,74.68
2022-11-19T21:30:40.954Z,75.86
2022-11-19T21:33:07.402Z,76.03
2022-11-19T21:35:33.900Z,76.19
2022-11-19T21:38:00.413Z,77.20
2022-11-19T21:40:26.871Z,76.78
2022-11-19T21:42:53.553Z,76.84
2022-11-19T21:45:20.030Z,76.90
2022-11-19T21:47:46.608Z,75.98
2022-11-19T21:50:13.171Z,75.60
2022-11-19T21:52:39.612Z,74.76
2022-11-19T21:55:06.258Z,76.03
2022-11-19T21:57:32.771Z,75.59
2022-11-19T21:59:59.252Z,74.95
2022-11-19T22:02:25.803Z,76.00
2022-11-19T22:04:52.289Z,76.09
2022-11-19T22:07:18.736Z,75.56
2022-11-19T22:09:45.293Z,75.17
2022-11-19T22:12:11.719Z,75.66
2022-11-19T22:14:38.365Z,75.46
2022-11-19T22:17:04.932Z,75.14
2022-11-19T22:19:31.489Z,76.59
2022-11-19T22:21:58.038Z,77.16
2022-11-19T22:24:24.495Z,75.34
2022-11-19T22:26:51.019Z,76.63
2022-11-19T22:29:17.565Z,76.13
2022-11-19T22:31:44.170Z,76.01
2022-11-19T22:34:11.736Z,76.19
2022-11-19T22:36:38.287Z,75.93
2022-11-19T22:39:05.154Z,73.81
2022-11-19T22:41:31.729Z,74.00
2022-11-19T22:43:58.671Z,74.51
2022-11-19T22:46:25.170Z,75.96
2022-11-19T22:48:51.661Z,75.71
2022-11-19T22:51:23.017Z,75.13
2022-11-19T22:53:50.603Z,75.95
2022-11-19T22:56:22.465Z,74.91
2022-11-19T22:58:50.370Z,74.62
2022-11-19T23:01:30.965Z,74.58
2022-11-19T23:03:59.058Z,75.18
2022-11-19T23:06:25.691Z,73.83
2022-11-19T23:08:52.598Z,73.25
2022-11-19T23:11:40.336Z,73.69
2022-11-19T23:14:12.247Z,75.40
2022-11-19T23:16:39.098Z,74.78
2022-11-19T23:19:06.029Z,75.08
2022-11-19T23:21:32.523Z,75.08
2022-11-19T23:24:02.362Z,74.61
2022-11-19T23:26:30.449Z,74.54
2022-11-19T23:28:57.464Z,75.27
2022-11-19T23:31:26.396Z,74.23
2022-11-19T23:33:58.758Z,75.25
2022-11-19T23:36:31.078Z,74.68
2022-11-19T23:38:57.871Z,75.67
2022-11-19T23:41:24.689Z,74.84
2022-11-19T23:43:53.343Z,74.51
2022-11-19T23:46:25.073Z,73.82
2022-11-19T23:48:51.798Z,75.32
2022-11-19T23:51:21.245Z,75.38
2022-11-19T23:53:48.174Z,75.06
2022-11-19T23:56:15.774Z,76.40
2022-11-19T23:58:42.979Z,76.65
